Home > Products > Valid Products > TAF

000
FTUS42 KMFL 231448 AAA
TAFFLL
TAF AMD
KFLL 231448Z 2315/2412 28006KT P6SM SKC
     FM231700 14010KT P6SM SCT040
     FM240200 VRB03KT P6SM SKC=



000
FTUS42 KMFL 231448 AAA
TAFMIA
TAF AMD
KMIA 231448Z 2315/2412 28005KT P6SM SKC
     FM231700 19008KT P6SM SCT040
     FM231900 16010KT P6SM SCT040
     FM232300 19006KT P6SM SCT040
     FM240100 VRB03KT P6SM SKC=



000
FTUS42 KMFL 231448 AAA
TAFAPF
TAF AMD
KAPF 231448Z 2315/2412 31006KT P6SM BKN027
     FM231600 28010KT P6SM SCT028
     FM240100 VRB03KT P6SM SKC=



000
FTUS42 KMFL 231448 AAA
TAFPBI
TAF AMD
KPBI 231448Z 2315/2412 31010KT P6SM FEW025 SCT150
     FM231800 12008KT P6SM SCT040
     FM240200 VRB03KT P6SM SKC=



000
FTUS42 KMFL 231125
TAFMIA
TAF
KMIA 231125Z 2312/2412 28005KT P6SM SCT250
     FM231700 17008KT P6SM SCT040
     FM240100 VRB03KT P6SM SKC=



000
FTUS42 KMFL 231125
TAFFLL
TAF
KFLL 231125Z 2312/2412 28006KT P6SM SKC
     FM231700 14010KT P6SM SCT040
     FM240200 VRB03KT P6SM SKC=



000
FTUS42 KMFL 231125
TAFAPF
TAF
KAPF 231125Z 2312/2412 VRB03KT P6SM SKC
     FM231600 28010KT P6SM SKC
     FM240100 VRB03KT P6SM SKC=



000
FTUS42 KMFL 231125
TAFPBI
TAF
KPBI 231125Z 2312/2412 30006KT P6SM FEW025 SCT200
     FM231700 12008KT P6SM SCT040
     FM240200 VRB03KT P6SM SKC=



000
FTUS42 KMFL 230902 AAA
TAFFLL
TAF AMD
KFLL 230902Z 2309/2406 29006KT P6SM SCT250
     FM231800 13010KT P6SM SCT040
     FM240200 VRB04KT P6SM FEW040 FEW250=



000
FTUS42 KMFL 230902 AAA
TAFMIA
TAF AMD
KMIA 230902Z 2309/2406 29005KT P6SM SCT250
     FM231900 16008KT P6SM SCT040
     FM240200 VRB04KT P6SM FEW040 FEW250=



000
FTUS42 KMFL 230902 AAA
TAFPBI
TAF AMD
KPBI 230902Z 2309/2406 29006KT P6SM FEW030 SCT250
     FM231800 12009KT P6SM SCT040
     FM240300 VRB04KT P6SM SCT040=



000
FTUS42 KMFL 230902 AAA
TAFAPF
TAF AMD
KAPF 230902Z 2309/2406 VRB04KT P6SM FEW250
     FM231600 28011KT P6SM SCT250
     FM240200 28004KT P6SM SKC=



000
FTUS42 KMFL 230535
TAFPBI
TAF
KPBI 230535Z 2306/2406 28006KT P6SM SCT050 BKN250
     FM231800 12009KT P6SM SCT040
     FM240300 VRB04KT P6SM SCT040=



000
FTUS42 KMFL 230535
TAFMIA
TAF
KMIA 230535Z 2306/2406 26006KT P6SM FEW040 BKN250
     FM231900 16008KT P6SM SCT040
     FM240200 VRB04KT P6SM FEW040 FEW250=



000
FTUS42 KMFL 230535
TAFFLL
TAF
KFLL 230535Z 2306/2406 29007KT P6SM FEW040 SCT250
     FM231800 13010KT P6SM SCT040
     FM240200 VRB04KT P6SM FEW040 FEW250=



000
FTUS42 KMFL 230535
TAFAPF
TAF
KAPF 230535Z 2306/2406 30007KT P6SM FEW020
     FM231600 28012KT P6SM SCT250
     FM240200 28004KT P6SM SKC=



000
FTUS42 KMFL 230325 AAC
TAFAPF
TAF AMD
KAPF 230325Z 2303/2324 31007KT P6SM SKC
     FM231400 28007KT P6SM SCT250=



000
FTUS42 KMFL 230325 AAC
TAFMIA
TAF AMD
KMIA 230325Z 2303/2324 24006KT P6SM BKN050 BKN250
     FM231500 27005KT P6SM SCT250
     FM231900 16008KT P6SM SCT040=



000
FTUS42 KMFL 230325 AAC
TAFPBI
TAF AMD
KPBI 230325Z 2303/2324 VRB04KT P6SM SCT050 BKN250
     FM231400 28007KT P6SM SCT250
     FM231900 12008KT P6SM SCT040=



000
FTUS42 KMFL 230325 AAC
TAFFLL
TAF AMD
KFLL 230325Z 2303/2324 VRB04KT P6SM BKN040 BKN300
     FM231500 28007KT P6SM SCT250
     FM231900 15008KT P6SM SCT040=



000
FTUS42 KMFL 230151 AAB
TAFFLL
TAF AMD
KFLL 230151Z 2302/2324 16005KT P6SM FEW060 BKN300
     FM231500 28007KT P6SM SCT250
     FM231900 15008KT P6SM SCT040=



000
FTUS42 KMFL 230151 AAB
TAFAPF
TAF AMD
KAPF 230151Z 2302/2324 31005KT P6SM SKC
     FM231400 28007KT P6SM SCT250=



000
FTUS42 KMFL 230151 AAB
TAFPBI
TAF AMD
KPBI 230151Z 2302/2324 16004KT P6SM BKN050 BKN250
     FM231400 28007KT P6SM SCT250
     FM231900 12008KT P6SM SCT040=



000
FTUS42 KMFL 230151 AAB
TAFMIA
TAF AMD
KMIA 230151Z 2302/2324 24011KT P6SM SCT070 BKN250
     FM231500 27005KT P6SM SCT250
     FM231900 16008KT P6SM SCT040=



000
FTUS42 KMFL 222351 AAA
TAFMIA
TAF AMD
KMIA 222351Z 2300/2324 13008KT P6SM FEW070 OVC250
     FM231500 27005KT P6SM SCT250
     FM231900 16008KT P6SM SCT040=



000
FTUS42 KMFL 222351 AAA
TAFAPF
TAF AMD
KAPF 222351Z 2300/2324 30010KT P6SM SKC
     FM230200 VRB03KT P6SM SKC
     FM231400 28007KT P6SM SCT250=



000
FTUS42 KMFL 222351 AAA
TAFFLL
TAF AMD
KFLL 222351Z 2300/2324 15008KT P6SM FEW060 BKN300
     FM231500 28007KT P6SM SCT250
     FM231900 15008KT P6SM SCT040=



000
FTUS42 KMFL 222351 AAA
TAFPBI
TAF AMD
KPBI 222351Z 2300/2324 12007KT P6SM FEW035 SCT050 SCT250
     FM231400 28007KT P6SM SCT250
     FM231900 12008KT P6SM SCT040=



000
FTUS42 KMFL 222347
TAFPBI
TAF
KPBI 222347Z 2300/2324 12007KT P6SM FEW035 SCT050 SCT250
     FM231400 28007KT P6SM SCT250=



000
FTUS42 KMFL 222347
TAFAPF
TAF
KAPF 222347Z 2300/2324 30010KT P6SM SKC
     FM230200 VRB03KT P6SM SKC
     FM231400 28007KT P6SM SCT250=



000
FTUS42 KMFL 222347
TAFFLL
TAF
KFLL 222347Z 2300/2324 15008KT P6SM FEW060 BKN300
     FM231500 28007KT P6SM SCT250=



000
FTUS42 KMFL 222347
TAFMIA
TAF
KMIA 222347Z 2300/2324 13008KT P6SM FEW070 OVC250
     FM231500 27005KT P6SM SCT250=



000
FTUS42 KMFL 222010 AAA
TAFFLL
TAF AMD
KFLL 222010Z 2220/2318 10007KT P6SM FEW045 BKN060 BKN300
     FM230000 VRB04KT P6SM SCT040 SCT250
     FM231500 28007KT P6SM SCT250=



000
FTUS42 KMFL 222010 AAA
TAFPBI
TAF AMD
KPBI 222010Z 2220/2318 11004KT P6SM SCT045 BKN060
     FM230000 VRB04KT P6SM FEW040 SCT250
     FM231400 28007KT P6SM SCT250=



000
FTUS42 KMFL 222010 AAA
TAFAPF
TAF AMD
KAPF 222010Z 2220/2318 30013G16KT P6SM FEW030
     FM230200 VRB03KT P6SM SKC
     FM231400 28007KT P6SM SCT250=



000
FTUS42 KMFL 222010 AAA
TAFMIA
TAF AMD
KMIA 222010Z 2220/2318 19005KT P6SM BKN060 BKN070 BKN250
     FM230000 VRB04KT P6SM SCT040 SCT250
     FM231500 27005KT P6SM SCT250=



000
FTUS42 KMFL 221730
TAFAPF
TAF
KAPF 221730Z 2218/2318 27011KT P6SM FEW040 FEW250
     FM230200 VRB03KT P6SM SKC
     FM231400 28007KT P6SM SCT250=



000
FTUS42 KMFL 221730
TAFFLL
TAF
KFLL 221730Z 2218/2318 35003KT P6SM FEW030 BKN040 BKN250
     FM221900 11007KT P6SM BKN040 BKN250
     FM230000 VRB04KT P6SM SCT040 SCT250
     FM231500 28007KT P6SM SCT250=



000
FTUS42 KMFL 221730
TAFPBI
TAF
KPBI 221730Z 2218/2318 VRB03KT P6SM BKN050 BKN250
     FM221900 13006KT P6SM BKN040 BKN250
      TEMPO 2222/2224 SCT040
     FM230000 VRB04KT P6SM FEW040 SCT250
     FM231400 28007KT P6SM SCT250=



000
FTUS42 KMFL 221730
TAFMIA
TAF
KMIA 221730Z 2218/2318 VRB05KT P6SM BKN045 BKN250
     FM222000 10007KT P6SM BKN050 BKN250
     FM230000 VRB04KT P6SM SCT040 SCT250
     FM231500 27005KT P6SM SCT250=



000
FTUS42 KMFL 221502 AAA
TAFFLL
TAF AMD
KFLL 221502Z 2215/2312 VRB05KT P6SM SCT040 BKN050 BKN250
     FM221600 09008KT P6SM BKN035 BKN250
     FM230000 VRB04KT P6SM SKC=



000
FTUS42 KMFL 221502 AAA
TAFMIA
TAF AMD
KMIA 221502Z 2215/2312 VRB05KT P6SM FEW025 BKN050 BKN250
     FM221800 15008KT P6SM SCT035 SCT250
     FM230000 VRB04KT P6SM SKC=



000
FTUS42 KMFL 221502 AAA
TAFAPF
TAF AMD
KAPF 221502Z 2215/2312 VRB03KT P6SM FEW250
     FM221600 26008KT P6SM FEW035 FEW250
     FM230100 VRB03KT P6SM SKC=



000
FTUS42 KMFL 221502 AAA
TAFPBI
TAF AMD
KPBI 221502Z 2215/2312 33003KT P6SM BKN035 BKN250
     FM221600 04007KT P6SM BKN040 BKN250
     FM222100 16006KT P6SM SCT040
     FM230200 VRB04KT P6SM SCT250=



000
FTUS42 KMFL 221120
TAFMIA
TAF
KMIA 221120Z 2212/2312 33004KT P6SM FEW040 SCT250
     FM221900 16008KT P6SM SCT035
     FM230000 VRB04KT P6SM SKC=



000
FTUS42 KMFL 221120
TAFFLL
TAF
KFLL 221120Z 2212/2312 33005KT P6SM FEW040 BKN050 BKN250
     FM221600 12006KT P6SM SCT035
     FM230000 VRB04KT P6SM SKC=



000
FTUS42 KMFL 221120
TAFAPF
TAF
KAPF 221120Z 2212/2312 05005KT P6SM FEW250
     FM221600 26008KT P6SM FEW035
     FM230100 VRB03KT P6SM SKC=



000
FTUS42 KMFL 221120
TAFPBI
TAF
KPBI 221120Z 2212/2312 31003KT P6SM FEW030 SCT050 SCT130
     FM221600 02006KT P6SM SCT040
     FM222100 16006KT P6SM SCT040
     FM230200 VRB04KT P6SM SCT250=



000
FTUS42 KMFL 220836 AAA
TAFFLL
TAF AMD
KFLL 220836Z 2209/2306 32004KT P6SM SKC
     FM221600 13006KT P6SM SCT035
     FM230000 22005KT P6SM SCT035
     FM230200 VRB03KT P6SM SKC=



000
FTUS42 KMFL 220836 AAA
TAFMIA
TAF AMD
KMIA 220836Z 2209/2306 32003KT P6SM SCT040
     FM221600 17006KT P6SM SCT035
     FM230200 VRB03KT P6SM SKC=



000
FTUS42 KMFL 220836 AAA
TAFAPF
TAF AMD
KAPF 220836Z 2209/2306 04004KT P6SM SKC
     FM221600 26006KT P6SM FEW035
     FM222200 29008KT P6SM SCT035
     FM230100 VRB03KT P6SM SKC=



000
FTUS42 KMFL 220836 AAA
TAFPBI
TAF AMD
KPBI 220836Z 2209/2306 32005KT P6SM SCT030 BKN040
     FM221600 12006KT P6SM SCT040
     FM222000 16006KT P6SM SCT040
     FM230200 VRB04KT P6SM SKC=



000
FTUS42 KMFL 220538
TAFPBI
TAF
KPBI 220538Z 2206/2306 33005KT P6SM SCT030
     FM221600 12006KT P6SM SCT040
     FM222000 16006KT P6SM SCT040
     FM230200 VRB04KT P6SM SKC=



000
FTUS42 KMFL 220538
TAFAPF
TAF
KAPF 220538Z 2206/2306 VRB03KT P6SM SKC
     FM221600 26006KT P6SM FEW035
     FM222200 29008KT P6SM SCT035
     FM230100 VRB03KT P6SM SKC=



000
FTUS42 KMFL 220538
TAFFLL
TAF
KFLL 220538Z 2206/2306 32005KT P6SM SCT045
     FM220800 VRB03KT P6SM SKC
     FM221600 13006KT P6SM SCT035
     FM230000 22005KT P6SM SCT035
     FM230200 VRB03KT P6SM SKC=



000
FTUS42 KMFL 220538
TAFMIA
TAF
KMIA 220538Z 2206/2306 VRB02KT P6SM SCT040
     FM221600 17006KT P6SM SCT035
     FM230200 VRB03KT P6SM SKC=



000
FTUS42 KMFL 220253 AAC
TAFFLL
TAF AMD
KFLL 220253Z 2203/2224 01006KT P6SM SCT035
     FM220800 35005KT P6SM SCT050
     FM221600 13005KT P6SM SCT035=



000
FTUS42 KMFL 220253 AAC
TAFAPF
TAF AMD
KAPF 220253Z 2203/2224 02005KT P6SM SKC
     FM221500 25008KT P6SM FEW035=



000
FTUS42 KMFL 220253 AAC
TAFPBI
TAF AMD
KPBI 220253Z 2203/2224 35008KT P6SM FEW250
     FM220600 33004KT P6SM SCT030
     FM221600 13007KT P6SM SCT040=



000
FTUS42 KMFL 220253 AAC
TAFMIA
TAF AMD
KMIA 220253Z 2203/2224 04006KT P6SM BKN050 BKN250
     FM220600 35002KT P6SM SCT030
     FM221800 17006KT P6SM SCT035=



000
FTUS42 KMFL 220141 AAB
TAFAPF
TAF AMD
KAPF 220141Z 2202/2224 32006KT P6SM SKC
     FM220600 02002KT P6SM FEW030
     FM221500 25008KT P6SM FEW035=



000
FTUS42 KMFL 220141 AAB
TAFMIA
TAF AMD
KMIA 220141Z 2202/2224 05006KT P6SM BKN050 BKN250
     FM220600 35002KT P6SM SCT030
     FM221800 17006KT P6SM SCT035=



000
FTUS42 KMFL 220141 AAB
TAFPBI
TAF AMD
KPBI 220141Z 2202/2224 36007KT P6SM FEW035 FEW250
     FM220600 33004KT P6SM SCT030
     FM221600 13007KT P6SM SCT040=



000
FTUS42 KMFL 220141 AAB
TAFFLL
TAF AMD
KFLL 220141Z 2202/2224 01007KT P6SM BKN035 BKN050
     FM220300 35004KT P6SM SCT030
     FM221600 13005KT P6SM SCT035=



000
FTUS42 KMFL 220014 AAA
TAFPBI
TAF AMD
KPBI 220014Z 2200/2224 02012KT P6SM FEW030 SCT250
     FM220600 33004KT P6SM SCT030
     FM221600 13007KT P6SM SCT040=



000
FTUS42 KMFL 220014 AAA
TAFMIA
TAF AMD
KMIA 220014Z 2200/2224 04005KT P6SM SCT035 BKN250
     FM220200 35005KT P6SM SCT030
     FM221800 17006KT P6SM SCT035=



000
FTUS42 KMFL 220014 AAA
TAFAPF
TAF AMD
KAPF 220014Z 2200/2224 32010KT P6SM FEW030 SCT250
     FM220200 04004KT P6SM FEW030
     FM221500 25008KT P6SM FEW035=



000
FTUS42 KMFL 220014 AAA
TAFFLL
TAF AMD
KFLL 220014Z 2200/2224 04009KT P6SM FEW025 OVC300
     FM220300 35004KT P6SM SCT030
     FM221600 13005KT P6SM SCT035=



000
FTUS42 KMFL 212342
TAFAPF
TAF
KAPF 212342Z 2200/2224 32010KT P6SM SKC
     FM220200 VRB04KT P6SM SKC=



000
FTUS42 KMFL 212342
TAFMIA
TAF
KMIA 212342Z 2200/2224 04005KT P6SM BKN035 BKN250
     FM220200 VRB05KT P6SM SKC=



000
FTUS42 KMFL 212342
TAFPBI
TAF
KPBI 212342Z 2200/2224 02012KT P6SM FEW030 SCT250
     FM220600 33004KT P6SM SCT040=



000
FTUS42 KMFL 212342
TAFFLL
TAF
KFLL 212342Z 2200/2224 04009KT P6SM FEW025 OVC300
     FM220200 03007KT P6SM SCT035
     FM220600 VRB05KT P6SM SCT035=



000
FTUS42 KMFL 212015 AAA
TAFFLL
TAF AMD
KFLL 212015Z 2120/2218 VRB06KT P6SM FEW040 SCT300
     FM220200 03007KT P6SM SCT035
     FM220600 VRB05KT P6SM SCT035=



000
FTUS42 KMFL 212015 AAA
TAFMIA
TAF AMD
KMIA 212015Z 2120/2218 29009KT P6SM FEW040 SCT250
     FM220200 VRB05KT P6SM SKC=



000
FTUS42 KMFL 212015 AAA
TAFAPF
TAF AMD
KAPF 212015Z 2120/2218 30010KT P6SM FEW035
     FM220200 VRB04KT P6SM SKC=



000
FTUS42 KMFL 212015 AAA
TAFPBI
TAF AMD
KPBI 212015Z 2120/2218 03012G17KT P6SM SCT040 SCT250
     FM212100 02010KT P6SM BKN040
     FM220600 33004KT P6SM SCT040=



000
FTUS42 KMFL 211743
TAFAPF
TAF
KAPF 211743Z 2118/2218 32011KT P6SM SCT250
     FM220200 VRB04KT P6SM SKC=



000
FTUS42 KMFL 211743
TAFPBI
TAF
KPBI 211743Z 2118/2218 34010KT P6SM BKN030 BKN150 BKN250
     FM212100 02010KT P6SM BKN040
     FM220600 33004KT P6SM SCT040=



000
FTUS42 KMFL 211743
TAFMIA
TAF
KMIA 211743Z 2118/2218 33010KT P6SM FEW035 BKN250
     FM212000 03010KT P6SM BKN040
     FM220200 VRB05KT P6SM SKC=



000
FTUS42 KMFL 211743
TAFFLL
TAF
KFLL 211743Z 2118/2218 34010KT P6SM SCT035 BKN250
     FM211900 02011KT P6SM BKN035 BKN250
     FM220200 03007KT P6SM SCT035
     FM220600 VRB05KT P6SM SCT035=



000
FTUS42 KMFL 211508 AAA
TAFMIA
TAF AMD
KMIA 211508Z 2115/2212 32010KT P6SM FEW020 FEW250
     FM211900 03010KT P6SM BKN040
     FM220200 03005KT P6SM SKC=



000
FTUS42 KMFL 211508 AAA
TAFPBI
TAF AMD
KPBI 211508Z 2115/2212 34010KT P6SM SCT035 SCT200
     FM212000 02010KT P6SM BKN040
     FM220200 03006KT P6SM SKC=



000
FTUS42 KMFL 211508 AAA
TAFFLL
TAF AMD
KFLL 211508Z 2115/2212 34006KT P6SM FEW025 FEW250
     FM211800 04012KT P6SM BKN040
     FM220100 03008KT P6SM SCT100=



000
FTUS42 KMFL 211508 AAA
TAFAPF
TAF AMD
KAPF 211508Z 2115/2212 VRB05KT P6SM FEW026 FEW250
     FM211700 29012KT P6SM FEW040 FEW250
     FM220200 VRB04KT P6SM SKC=



000
FTUS42 KMFL 211120
TAFMIA
TAF
KMIA 211120Z 2112/2212 33003KT P6SM FEW025 SCT250
     FM211300 35006KT P6SM SCT035
     FM211900 03010KT P6SM BKN040
     FM220200 03005KT P6SM SKC=



000
FTUS42 KMFL 211120
TAFAPF
TAF
KAPF 211120Z 2112/2212 02003KT P6SM SCT250
     FM211300 03006KT P6SM SCT035
     FM211700 29012KT P6SM FEW040
     FM220200 VRB04KT P6SM SKC=



000
FTUS42 KMFL 211120
TAFPBI
TAF
KPBI 211120Z 2112/2212 31007KT P6SM FEW025 SCT200
     FM211600 34010KT P6SM SCT035 SCT200
     FM212000 02010KT P6SM BKN040
     FM220200 03006KT P6SM SKC=



000
FTUS42 KMFL 211120
TAFFLL
TAF
KFLL 211120Z 2112/2212 32006KT P6SM FEW035 FEW250
     FM211300 35008KT P6SM SCT035
     FM211800 04012KT P6SM BKN040
     FM220100 03008KT P6SM SCT100=



000
FTUS42 KMFL 210846 AAA
TAFFLL
TAF AMD
KFLL 210846Z 2109/2206 34008KT P6SM SKC
     FM211300 35008KT P6SM SCT035
     FM211800 04012KT P6SM BKN040
     FM220100 03008KT P6SM SCT100=



000
FTUS42 KMFL 210846 AAA
TAFAPF
TAF AMD
KAPF 210846Z 2109/2206 04006KT P6SM SKC
     FM211300 03006KT P6SM SCT035
     FM211700 29012KT P6SM FEW040
     FM220200 VRB04KT P6SM SKC=



000
FTUS42 KMFL 210846 AAA
TAFPBI
TAF AMD
KPBI 210846Z 2109/2206 33008KT P6SM SCT030
     FM211600 34010KT P6SM SCT035
     FM212000 02010KT P6SM BKN040
     FM220200 03006KT P6SM SKC=



000
FTUS42 KMFL 210846 AAA
TAFMIA
TAF AMD
KMIA 210846Z 2109/2206 35005KT P6SM SKC
     FM211300 35006KT P6SM SCT035
     FM211800 03010KT P6SM BKN040
     FM220200 03005KT P6SM SKC=



000
FTUS42 KMFL 210530
TAFPBI
TAF
KPBI 210530Z 2106/2206 34008KT P6SM SCT028
     FM211600 34010KT P6SM SCT035
     FM212000 02010KT P6SM BKN040
     FM220200 03006KT P6SM SKC=



000
FTUS42 KMFL 210530
TAFFLL
TAF
KFLL 210530Z 2106/2206 VRB05KT P6SM FEW035
     FM211300 35008KT P6SM SCT035
     FM211800 04012KT P6SM BKN040
     FM220100 03008KT P6SM SCT100=



000
FTUS42 KMFL 210530
TAFAPF
TAF
KAPF 210530Z 2106/2206 VRB05KT P6SM SKC
     FM211300 03006KT P6SM SCT035
     FM211700 29012KT P6SM FEW040
     FM220200 VRB04KT P6SM SKC=



000
FTUS42 KMFL 210530
TAFMIA
TAF
KMIA 210530Z 2106/2206 VRB05KT P6SM FEW045
     FM211300 35006KT P6SM SCT035
     FM211800 03010KT P6SM BKN040
     FM220200 03005KT P6SM SKC=



000
FTUS42 KMFL 210316 AAA
TAFFLL
TAF AMD
KFLL 210316Z 2103/2124 01008KT P6SM SCT035
     FM212000 02011KT P6SM BKN040=



000
FTUS42 KMFL 210316 AAA
TAFMIA
TAF AMD
KMIA 210316Z 2103/2124 VRB04KT P6SM FEW045
     FM211500 35010KT P6SM SCT035
     FM212100 03008KT P6SM BKN040=



000
FTUS42 KMFL 210316 AAA
TAFPBI
TAF AMD
KPBI 210316Z 2103/2124 35006KT P6SM SCT035
     FM211400 35012KT P6SM SCT035
     FM212000 02010KT P6SM BKN040=



000
FTUS42 KMFL 210316 AAA
TAFAPF
TAF AMD
KAPF 210316Z 2103/2124 35006KT P6SM BKN045
     FM210500 03005KT P6SM SCT040
     FM211700 29012KT P6SM SCT040=



000
FTUS42 KMFL 202327
TAFPBI
TAF
KPBI 202327Z 2100/2124 35008KT P6SM SCT030
     FM211400 35012KT P6SM SCT035
     FM212000 02010KT P6SM BKN040=



000
FTUS42 KMFL 202327
TAFFLL
TAF
KFLL 202327Z 2100/2124 02010KT P6SM BKN035
     FM210300 35006KT P6SM SCT035
     FM212000 02011KT P6SM BKN040=



000
FTUS42 KMFL 202327
TAFAPF
TAF
KAPF 202327Z 2100/2124 31009KT P6SM SCT040
     FM210400 03005KT P6SM SCT040
     FM211700 29012KT P6SM SCT040=



000
FTUS42 KMFL 202327
TAFMIA
TAF
KMIA 202327Z 2100/2124 34006KT P6SM SCT040
     FM211500 35010KT P6SM SCT035
     FM212100 03008KT P6SM BKN040=



000
FTUS42 KMFL 202106 AAA
TAFAPF
TAF AMD
KAPF 202106Z 2021/2118 31011KT P6SM SCT040
     FM210100 32008KT P6SM SCT030
     FM211500 01006KT P6SM FEW035=



000
FTUS42 KMFL 202101 AAA
TAFMIA
TAF AMD
KMIA 202101Z 2021/2118 31007KT P6SM BKN040 BKN250
     FM210100 35005KT P6SM SCT030
     FM211500 01007KT P6SM SCT035=



000
FTUS42 KMFL 202100 AAA
TAFFLL
TAF AMD
KFLL 202100Z 2021/2118 02007KT P6SM BKN040
     FM210100 35007KT P6SM SCT035
     FM211500 02007KT P6SM FEW035=



000
FTUS42 KMFL 202023 AAA
TAFPBI
TAF AMD
KPBI 202023Z 2020/2118 02007KT P6SM SCT030 BKN040
     FM210200 35005KT P6SM BKN035
     FM211500 01007KT P6SM FEW035=



000
FTUS42 KMFL 201759
TAFAPF
TAF
KAPF 201759Z 2018/2118 31009KT P6SM OVC035
      TEMPO 2018/2019 SCT030
     FM210100 32008KT P6SM SCT030
     FM211500 01006KT P6SM FEW035=



000
FTUS42 KMFL 201759
TAFFLL
TAF
KFLL 201759Z 2018/2118 28007KT P6SM BKN035
     FM210100 35007KT P6SM SCT030
     FM211500 02007KT P6SM FEW035=



000
FTUS42 KMFL 201759
TAFPBI
TAF
KPBI 201759Z 2018/2118 31007KT P6SM OVC040
     FM210100 35004KT P6SM SCT030
     FM211500 01007KT P6SM FEW035=



000
FTUS42 KMFL 201759
TAFMIA
TAF
KMIA 201759Z 2018/2118 31009KT P6SM BKN035 BKN250
     FM210100 35005KT P6SM SCT030
     FM211500 01007KT P6SM SCT035=



000
FTUS42 KMFL 201744
TAFFLL
TAF
KFLL 201744Z 2018/2118 30009G15KT P6SM BKN035
     FM210100 35007KT P6SM SCT030
     FM211500 02007KT P6SM FEW035=



000
FTUS42 KMFL 201744
TAFMIA
TAF
KMIA 201744Z 2018/2118 31008G17KT P6SM SCT035 BKN250
     FM210100 35005KT P6SM SCT030
     FM211500 01007KT P6SM SCT035=



000
FTUS42 KMFL 201744
TAFAPF
TAF
KAPF 201744Z 2018/2118 29007KT P6SM OVC035
      TEMPO 2018/2019 SCT030
     FM210100 32008KT P6SM SCT030
     FM211500 01006KT P6SM FEW035=



000
FTUS42 KMFL 201744
TAFPBI
TAF
KPBI 201744Z 2018/2118 31007KT P6SM BKN030 BKN040
      TEMPO 2018/2022 SCT030
     FM210100 35004KT P6SM SCT030
     FM211500 01007KT P6SM FEW035=



000
FTUS42 KMFL 201601 AAD
TAFFLL
TAF AMD
KFLL 201601Z 2016/2112 32008KT P6SM FEW024 BKN040
     FM201900 35008KT P6SM SCT035
     FM210100 01007KT P6SM FEW035=



000
FTUS42 KMFL 201601 AAD
TAFPBI
TAF AMD
KPBI 201601Z 2016/2112 32007KT P6SM BKN023 BKN030
      TEMPO 2016/2018 BKN020
     FM201800 35008KT P6SM SCT035
     FM210100 02007KT P6SM FEW035=



000
FTUS42 KMFL 201601 AAC
TAFMIA
TAF AMD
KMIA 201601Z 2016/2112 30012G17KT P6SM FEW025 SCT040 BKN250
     FM201900 35008KT P6SM SCT035
     FM210100 34006KT P6SM FEW035=



000
FTUS42 KMFL 201601 AAC
TAFAPF
TAF AMD
KAPF 201601Z 2016/2112 VRB04KT P6SM BKN030
      TEMPO 2016/2019 SCT030
     FM201900 31008KT P6SM SKC
     FM210100 34006KT P6SM SKC=



000
FTUS42 KMFL 201555 AAC
TAFFLL
TAF AMD
KFLL 201555Z 2016/2112 31009KT P6SM FEW025 BKN035
     FM201900 01008KT P6SM SCT035
     FM210100 01007KT P6SM FEW035=



    US Dept of Commerce
    National Oceanic and Atmospheric Administration
    National Weather Service
    1325 East West Highway
    Silver Spring, MD 20910
    Page Author: NWS Internet Services Team
Disclaimer
Information Quality
Credits
Glossary
Privacy Policy
Freedom of Information Act (FOIA)
About Us
Career Opportunities